Time;durP1;ratioP1;P1;durP2;ratioP2;P2;SDS_P1;SDS_P2;PMS_P1;PMS_P2;Temp;Humidity;BMP_temperature;BMP_pressure;BME280_temperature;BME280_humidity;BME280_pressure;Samples;Min_cycle;Max_cycle;Signal;HPM_P1;HPM_P2
2022/04/24 00:01:37;;;;;;;12.43;8.35;;;;;;;12.56;48.89;100194.06;5044433;28;20036;-64
2022/04/24 00:04:03;;;;;;;12.63;8.00;;;;;;;12.30;50.15;100188.28;5042369;28;20036;-64
2022/04/24 00:06:28;;;;;;;8.90;5.60;;;;;;;12.41;49.67;100187.31;5042234;28;20041;-64
2022/04/24 00:08:53;;;;;;;10.45;6.80;;;;;;;12.26;49.66;100184.38;5034391;28;20485;-64
2022/04/24 00:11:19;;;;;;;10.43;6.60;;;;;;;12.45;49.40;100184.88;5043749;28;20020;-64
2022/04/24 00:13:44;;;;;;;13.85;9.48;;;;;;;12.31;49.48;100184.44;5043341;28;20032;-65
2022/04/24 00:16:10;;;;;;;9.07;6.18;;;;;;;12.35;49.65;100182.84;5042203;28;20037;-64
2022/04/24 00:18:38;;;;;;;11.45;7.68;;;;;;;12.41;49.88;100179.03;5044225;28;20021;-64
2022/04/24 00:21:04;;;;;;;11.85;7.97;;;;;;;12.10;50.66;100179.81;5040082;28;20021;-64
2022/04/24 00:23:30;;;;;;;12.35;8.88;;;;;;;12.08;50.31;100171.81;5040657;28;20060;-64
2022/04/24 00:25:56;;;;;;;12.15;7.20;;;;;;;11.90;51.16;100175.72;5042737;28;20029;-64
2022/04/24 00:28:21;;;;;;;11.50;7.82;;;;;;;11.97;50.37;100186.53;5042097;28;20164;-65
2022/04/24 00:30:46;;;;;;;12.63;8.88;;;;;;;11.64;52.13;100173.69;5043721;28;20112;-64
2022/04/24 00:33:12;;;;;;;13.48;9.90;;;;;;;11.59;51.93;100162.63;5041439;28;20471;-64
2022/04/24 00:35:37;;;;;;;14.40;9.23;;;;;;;11.56;52.60;100169.47;5042687;28;20040;-64
2022/04/24 00:38:02;;;;;;;15.00;10.63;;;;;;;11.48;52.65;100166.31;5041614;28;20083;-64
2022/04/24 00:40:28;;;;;;;10.52;7.57;;;;;;;11.97;50.76;100167.28;5043180;28;20033;-64
2022/04/24 00:42:53;;;;;;;11.73;8.45;;;;;;;11.70;51.95;100154.22;5042134;28;20025;-64
2022/04/24 00:45:18;;;;;;;12.48;8.98;;;;;;;11.55;52.51;100156.78;5041687;28;20029;-64
2022/04/24 00:47:44;;;;;;;14.70;10.02;;;;;;;11.49;52.64;100168.81;5043274;28;20487;-64
2022/04/24 00:50:10;;;;;;;15.90;8.57;;;;;;;11.79;51.65;100160.13;5041373;28;20033;-64
2022/04/24 00:52:36;;;;;;;8.80;5.78;;;;;;;11.73;51.87;100163.91;5034579;28;20036;-64
2022/04/24 00:55:02;;;;;;;11.18;6.88;;;;;;;11.76;51.56;100159.81;5041638;28;20021;-64
2022/04/24 00:57:28;;;;;;;12.93;8.48;;;;;;;11.59;52.05;100159.88;5042661;28;20048;-64
2022/04/24 00:59:53;;;;;;;9.20;6.20;;;;;;;11.69;51.74;100160.81;5043220;28;20025;-64
2022/04/24 01:02:18;;;;;;;15.45;8.23;;;;;;;11.66;52.23;100168.78;5023228;28;20161;-64
2022/04/24 01:04:43;;;;;;;13.18;10.20;;;;;;;11.36;52.88;100159.00;5039155;28;20028;-64
2022/04/24 01:07:10;;;;;;;10.15;6.28;;;;;;;11.60;51.84;100164.28;5040954;28;20459;-65
2022/04/24 01:09:35;;;;;;;12.48;8.23;;;;;;;11.55;52.28;100164.19;5042947;28;20112;-64
2022/04/24 01:12:01;;;;;;;10.13;6.28;;;;;;;11.53;52.55;100155.38;5042410;28;20251;-66
2022/04/24 01:14:28;;;;;;;9.57;6.07;;;;;;;11.47;52.93;100164.66;5042811;28;20498;-66
2022/04/24 01:16:54;;;;;;;12.88;8.63;;;;;;;11.32;53.22;100166.09;5042476;28;20477;-66
2022/04/24 01:19:19;;;;;;;14.73;10.70;;;;;;;11.10;54.05;100165.19;5039468;28;20080;-66
2022/04/24 01:21:48;;;;;;;12.93;10.55;;;;;;;11.02;54.48;100162.88;5039703;28;20131;-66
2022/04/24 01:24:14;;;;;;;;;;;;;;;11.43;53.32;100164.31;5043164;28;20025;-66
2022/04/24 01:26:39;;;;;;;12.98;8.27;;;;;;;10.96;54.62;100164.72;5040675;28;20275;-66
2022/04/24 01:29:05;;;;;;;13.40;8.63;;;;;;;11.39;53.01;100166.72;5040500;28;20029;-66
2022/04/24 01:31:31;;;;;;;14.05;10.20;;;;;;;10.80;55.32;100166.38;5042713;28;20041;-66
2022/04/24 01:33:57;;;;;;;13.20;9.50;;;;;;;10.93;54.82;100164.38;5039760;28;20048;-66
2022/04/24 01:36:22;;;;;;;14.07;10.82;;;;;;;10.84;55.06;100173.00;5042130;28;20467;-66
2022/04/24 01:38:48;;;;;;;13.32;10.55;;;;;;;10.71;55.67;100173.34;5041246;28;20162;-66
2022/04/24 01:41:14;;;;;;;13.60;8.07;;;;;;;10.64;55.92;100172.66;5040835;28;20114;-66
2022/04/24 01:43:39;;;;;;;14.73;10.63;;;;;;;10.77;55.22;100166.84;5043390;28;20563;-64
2022/04/24 01:46:06;;;;;;;13.75;11.27;;;;;;;10.46;56.69;100175.66;5043209;28;20753;-66
2022/04/24 01:48:33;;;;;;;13.50;10.30;;;;;;;10.68;55.80;100173.84;5042096;28;20032;-66
2022/04/24 01:50:59;;;;;;;14.90;8.70;;;;;;;10.63;55.83;100168.25;5039869;28;20589;-66
2022/04/24 01:53:24;;;;;;;12.05;7.60;;;;;;;10.77;55.38;100179.75;5042941;28;20114;-66
2022/04/24 01:55:50;;;;;;;13.07;7.10;;;;;;;10.64;55.50;100170.78;5044028;28;20071;-66
2022/04/24 01:58:15;;;;;;;16.13;10.05;;;;;;;10.60;55.87;100171.50;5046185;28;20103;-66
2022/04/24 02:00:41;;;;;;;13.82;7.97;;;;;;;10.66;55.40;100167.78;5045647;28;20433;-66
2022/04/24 02:03:06;;;;;;;11.77;8.57;;;;;;;10.55;56.16;100166.75;5046143;28;20029;-66
2022/04/24 02:05:31;;;;;;;14.82;11.00;;;;;;;10.35;56.68;100172.72;5045079;28;20028;-66
2022/04/24 02:07:56;;;;;;;14.02;10.55;;;;;;;10.84;55.04;100158.44;5046082;28;20451;-66
2022/04/24 02:10:21;;;;;;;12.45;7.78;;;;;;;10.62;55.48;100174.84;5044715;28;20087;-66
2022/04/24 02:12:47;;;;;;;14.25;8.23;;;;;;;10.21;57.34;100173.22;5045651;28;20044;-66
2022/04/24 02:15:12;;;;;;;14.98;9.75;;;;;;;10.33;57.00;100171.28;5044576;28;20033;-66
2022/04/24 02:17:37;;;;;;;12.82;9.15;;;;;;;10.42;56.85;100179.97;5046325;28;20345;-66
2022/04/24 02:20:03;;;;;;;14.93;11.27;;;;;;;10.13;57.58;100177.16;5043733;28;20032;-66
2022/04/24 02:22:32;;;;;;;14.45;9.20;;;;;;;10.31;57.38;100178.94;5044821;28;20028;-66
2022/04/24 02:24:58;;;;;;;12.88;8.68;;;;;;;10.53;56.16;100170.81;5045927;28;20542;-66
2022/04/24 02:27:23;;;;;;;13.05;8.50;;;;;;;10.46;56.78;100170.16;5043925;28;20057;-66
2022/04/24 02:29:48;;;;;;;16.88;11.55;;;;;;;10.18;57.44;100169.03;5043288;28;20472;-66
2022/04/24 02:32:13;;;;;;;15.38;10.45;;;;;;;10.06;58.14;100171.00;5045885;28;20068;-66
2022/04/24 02:34:39;;;;;;;13.82;10.65;;;;;;;10.43;56.96;100165.16;5045512;28;20068;-63
2022/04/24 02:37:04;;;;;;;15.70;11.15;;;;;;;10.05;58.35;100169.34;5045770;28;20029;-66
2022/04/24 02:39:29;;;;;;;12.00;9.35;;;;;;;10.26;57.61;100170.59;5042812;28;20495;-66
2022/04/24 02:41:55;;;;;;;14.10;11.38;;;;;;;10.08;57.79;100168.84;5045287;28;20476;-65
2022/04/24 02:44:20;;;;;;;15.63;13.35;;;;;;;9.72;59.53;100170.84;5045458;28;20044;-66
2022/04/24 02:46:45;;;;;;;14.10;10.63;;;;;;;9.94;58.81;100172.97;5045589;28;20379;-66
2022/04/24 02:49:11;;;;;;;16.95;13.85;;;;;;;9.71;59.45;100177.41;5043065;28;20102;-66
2022/04/24 02:51:36;;;;;;;16.42;12.52;;;;;;;9.80;59.22;100175.97;5044959;28;20028;-66
2022/04/24 02:54:01;;;;;;;15.38;9.80;;;;;;;10.19;57.55;100176.22;5045737;28;20051;-66
2022/04/24 02:56:26;;;;;;;17.02;13.30;;;;;;;9.76;59.33;100179.44;5044492;28;20036;-66
2022/04/24 02:58:52;;;;;;;14.68;12.07;;;;;;;9.85;58.81;100186.22;5041332;28;20045;-66
2022/04/24 03:01:18;;;;;;;12.85;8.98;;;;;;;9.95;58.55;100178.19;5043970;28;20059;-66
2022/04/24 03:03:43;;;;;;;14.30;7.85;;;;;;;9.93;58.57;100187.72;5044906;28;20048;-66
2022/04/24 03:06:09;;;;;;;12.93;9.13;;;;;;;9.86;58.87;100182.38;5043388;28;20057;-66
2022/04/24 03:08:34;;;;;;;16.17;11.68;;;;;;;9.68;59.86;100185.28;5045075;28;20029;-66
2022/04/24 03:11:00;;;;;;;19.92;14.95;;;;;;;9.27;61.84;100182.44;5043470;28;20025;-66
2022/04/24 03:13:25;;;;;;;15.40;10.48;;;;;;;9.58;60.23;100183.19;5044561;28;20120;-66
2022/04/24 03:15:50;;;;;;;18.30;14.02;;;;;;;9.35;61.34;100171.16;5044381;28;20433;-66
2022/04/24 03:18:15;;;;;;;17.88;14.30;;;;;;;9.33;61.92;100178.78;5044950;28;20053;-66
2022/04/24 03:20:41;;;;;;;19.52;14.93;;;;;;;9.37;61.25;100181.84;5040473;28;20108;-66
2022/04/24 03:23:06;;;;;;;18.27;12.60;;;;;;;9.39;61.11;100178.91;5045683;28;20033;-66
2022/04/24 03:25:31;;;;;;;14.65;8.88;;;;;;;9.61;60.54;100185.41;5043511;28;20024;-66
2022/04/24 03:27:56;;;;;;;14.00;9.60;;;;;;;9.22;62.11;100190.56;5044575;28;20463;-67
2022/04/24 03:30:22;;;;;;;17.27;12.70;;;;;;;9.27;62.04;100179.72;5040955;28;20025;-66
2022/04/24 03:32:48;;;;;;;18.23;13.63;;;;;;;9.13;63.08;100189.25;5044872;28;20048;-66
2022/04/24 03:35:13;;;;;;;15.15;10.13;;;;;;;9.29;62.11;100174.00;5043592;28;20423;-66
2022/04/24 03:37:39;;;;;;;14.50;10.63;;;;;;;9.54;61.48;100184.72;5044298;28;20104;-66
2022/04/24 03:40:06;;;;;;;14.35;11.07;;;;;;;9.64;61.15;100184.94;5043029;28;20659;-66
2022/04/24 03:42:35;;;;;;;17.02;14.25;;;;;;;9.34;62.33;100179.63;5044267;28;20368;-66
2022/04/24 03:45:01;;;;;;;20.98;14.07;;;;;;;9.11;63.55;100188.66;5042504;28;20067;-66
2022/04/24 03:47:27;;;;;;;20.55;14.00;;;;;;;9.26;63.00;100183.53;5044457;28;20029;-66
2022/04/24 03:49:52;;;;;;;21.80;15.15;;;;;;;9.16;63.63;100183.28;5042278;28;20125;-66
2022/04/24 03:52:17;;;;;;;20.20;14.65;;;;;;;8.94;64.53;100184.94;5042606;28;20029;-66
2022/04/24 03:54:43;;;;;;;14.85;9.88;;;;;;;9.23;63.42;100183.19;5043318;28;20471;-65
2022/04/24 03:57:09;;;;;;;16.25;10.88;;;;;;;9.05;64.20;100182.22;5044408;28;20028;-66
2022/04/24 03:59:35;;;;;;;16.63;11.93;;;;;;;9.01;64.73;100180.19;5041199;28;20083;-65
2022/04/24 04:02:00;;;;;;;17.02;12.13;;;;;;;9.03;64.53;100178.88;5043263;28;20383;-65
2022/04/24 04:04:26;;;;;;;16.67;10.48;;;;;;;9.17;64.08;100184.94;5043278;28;20063;-65
2022/04/24 04:06:52;;;;;;;13.10;10.13;;;;;;;9.11;64.17;100177.69;5043100;28;20552;-66
2022/04/24 04:09:17;;;;;;;16.88;11.30;;;;;;;8.95;65.19;100181.13;5042377;28;20487;-65
2022/04/24 04:11:42;;;;;;;15.07;11.30;;;;;;;9.19;64.40;100182.81;5043617;28;20033;-65
2022/04/24 04:14:08;;;;;;;16.70;11.98;;;;;;;8.87;65.80;100178.72;5043190;28;20082;-64
2022/04/24 04:16:33;;;;;;;15.10;9.45;;;;;;;9.01;64.87;100182.91;5032811;28;20128;-65
2022/04/24 04:18:58;;;;;;;16.67;11.25;;;;;;;9.00;64.99;100181.25;5036663;28;20034;-65
2022/04/24 04:21:23;;;;;;;17.30;11.68;;;;;;;8.90;65.38;100181.00;5041244;28;20032;-66
2022/04/24 04:23:49;;;;;;;19.05;12.93;;;;;;;8.90;65.81;100179.09;5044072;28;20037;-65
2022/04/24 04:26:17;;;;;;;18.42;13.93;;;;;;;8.74;66.40;100186.09;5043629;28;20511;-65
2022/04/24 04:28:45;;;;;;;17.92;11.65;;;;;;;8.88;65.90;100188.63;5041913;28;20060;-65
2022/04/24 04:31:13;;;;;;;;;;;;;;;9.11;65.33;100188.66;5044329;28;20029;-65
2022/04/24 04:33:39;;;;;;;14.98;9.05;;;;;;;8.63;67.05;100192.41;5041513;28;20010;-65
2022/04/24 04:36:05;;;;;;;16.25;13.40;;;;;;;8.90;65.96;100195.53;5042637;28;20120;-65
2022/04/24 04:38:30;;;;;;;17.95;13.70;;;;;;;8.68;66.92;100195.25;5041939;28;20025;-65
2022/04/24 04:40:55;;;;;;;19.13;12.73;;;;;;;9.02;65.53;100201.88;5042310;28;20025;-65
2022/04/24 04:43:21;;;;;;;18.23;13.60;;;;;;;8.96;65.72;100199.22;5043510;28;20442;-65
2022/04/24 04:45:47;;;;;;;21.73;14.77;;;;;;;9.07;65.37;100204.75;5041663;28;20032;-65
2022/04/24 04:48:12;;;;;;;16.67;11.80;;;;;;;8.80;66.66;100200.75;5042659;28;20392;-65
2022/04/24 04:50:38;;;;;;;20.05;14.90;;;;;;;8.76;66.97;100211.34;5041946;28;20025;-65
2022/04/24 04:53:03;;;;;;;17.30;11.18;;;;;;;8.51;67.66;100213.41;5042494;28;20028;-65
2022/04/24 04:55:28;;;;;;;20.48;14.00;;;;;;;9.01;66.39;100208.41;5041167;28;21018;-65
2022/04/24 04:57:54;;;;;;;16.13;8.50;;;;;;;8.70;66.72;100215.00;5043243;28;20053;-65
2022/04/24 05:00:20;;;;;;;16.27;10.68;;;;;;;8.82;66.51;100221.38;5040760;28;20336;-65
2022/04/24 05:02:45;;;;;;;19.42;14.57;;;;;;;8.68;67.34;100214.44;5042144;28;20728;-65
2022/04/24 05:05:10;;;;;;;16.45;10.95;;;;;;;8.70;67.33;100217.75;5042063;28;20166;-66
2022/04/24 05:07:36;;;;;;;15.30;11.95;;;;;;;9.02;66.03;100221.06;5042368;28;20025;-65
2022/04/24 05:10:04;;;;;;;20.02;13.25;;;;;;;8.93;66.29;100233.41;5040949;28;20021;-65
2022/04/24 05:12:30;;;;;;;15.48;11.68;;;;;;;8.94;66.50;100234.25;5042351;28;20595;-65
2022/04/24 05:15:03;;;;;;;13.98;9.70;;;;;;;8.98;66.44;100229.97;5042293;28;20091;-66
2022/04/24 05:17:29;;;;;;;19.00;13.63;;;;;;;8.64;67.55;100246.06;5042968;28;20363;-65
2022/04/24 05:19:55;;;;;;;16.80;12.05;;;;;;;8.80;66.74;100245.41;5039726;28;20025;-67
2022/04/24 05:22:20;;;;;;;20.40;13.55;;;;;;;8.76;66.80;100238.72;5041572;28;20052;-65
2022/04/24 05:24:45;;;;;;;14.55;8.95;;;;;;;8.91;66.68;100241.00;5042480;28;20032;-65
2022/04/24 05:27:11;;;;;;;19.80;14.35;;;;;;;8.82;67.46;100248.75;5040642;28;20498;-66
2022/04/24 05:29:36;;;;;;;19.52;14.52;;;;;;;8.90;66.32;100247.56;5042762;28;20025;-65
2022/04/24 05:32:02;;;;;;;19.17;13.48;;;;;;;8.99;66.16;100253.56;5044722;28;20769;-65
2022/04/24 05:34:27;;;;;;;14.82;10.27;;;;;;;9.06;66.00;100259.75;5045717;28;20036;-65
2022/04/24 05:36:52;;;;;;;22.48;13.98;;;;;;;8.79;67.31;100259.31;5045646;28;20036;-67
2022/04/24 05:39:18;;;;;;;14.13;10.20;;;;;;;9.14;65.91;100261.31;5046317;28;20098;-65
2022/04/24 05:41:43;;;;;;;19.52;13.27;;;;;;;8.89;66.70;100259.59;5046824;28;20025;-65
2022/04/24 05:44:08;;;;;;;14.85;11.95;;;;;;;9.31;64.83;100252.16;5044762;28;20427;-65
2022/04/24 05:46:33;;;;;;;15.60;9.27;;;;;;;9.18;64.96;100246.91;5046486;28;20049;-65
2022/04/24 05:49:00;;;;;;;15.82;10.95;;;;;;;9.28;64.40;100260.88;5044378;28;20076;-65
2022/04/24 05:51:26;;;;;;;14.90;11.07;;;;;;;9.27;64.37;100259.19;5046228;28;20028;-65
2022/04/24 05:53:51;;;;;;;14.25;10.13;;;;;;;9.11;65.29;100262.63;5046471;28;20094;-66
2022/04/24 05:56:17;;;;;;;14.18;11.07;;;;;;;9.43;63.70;100252.19;5044563;28;20033;-65
2022/04/24 05:58:42;;;;;;;16.83;11.48;;;;;;;9.19;65.26;100251.31;5045803;28;20404;-66
2022/04/24 06:01:07;;;;;;;14.68;10.13;;;;;;;9.33;64.58;100262.91;5045554;28;20044;-65
2022/04/24 06:03:32;;;;;;;16.88;13.30;;;;;;;9.73;62.86;100260.28;5044999;28;20067;-65
2022/04/24 06:05:58;;;;;;;17.02;14.07;;;;;;;9.78;62.65;100260.41;5046101;28;20025;-65
2022/04/24 06:08:23;;;;;;;15.00;10.32;;;;;;;9.71;62.74;100267.06;5044828;28;20392;-65
2022/04/24 06:10:48;;;;;;;13.70;10.68;;;;;;;9.52;63.70;100263.59;5044922;28;20527;-65
2022/04/24 06:13:14;;;;;;;16.77;13.05;;;;;;;9.42;63.95;100268.84;5046073;28;20041;-65
2022/04/24 06:15:39;;;;;;;18.70;11.07;;;;;;;9.49;63.57;100269.59;5044701;28;20589;-62
2022/04/24 06:18:05;;;;;;;16.67;11.00;;;;;;;9.60;63.27;100271.50;5046136;28;20102;-65
2022/04/24 06:20:30;;;;;;;17.67;11.43;;;;;;;9.81;62.59;100279.09;5043524;28;20039;-65
2022/04/24 06:22:57;;;;;;;19.13;12.50;;;;;;;9.62;63.45;100280.28;5044641;28;20025;-65
2022/04/24 06:25:24;;;;;;;16.53;8.97;;;;;;;9.79;63.49;100281.25;5041982;28;20036;-65
2022/04/24 06:27:50;;;;;;;13.48;8.23;;;;;;;9.92;62.19;100271.09;5045426;28;20079;-66
2022/04/24 06:30:17;;;;;;;16.33;12.48;;;;;;;9.98;62.15;100273.72;5044613;28;20491;-66
2022/04/24 06:32:43;;;;;;;16.08;10.45;;;;;;;10.07;61.16;100274.19;5044624;28;20332;-66
2022/04/24 06:35:11;;;;;;;15.55;11.50;;;;;;;9.97;61.65;100282.19;5044406;28;20025;-66
2022/04/24 06:37:46;;;;;;;17.23;14.00;;;;;;;9.76;62.81;100270.75;5045131;28;20037;-65
2022/04/24 06:40:13;;;;;;;18.20;12.63;;;;;;;9.91;61.42;100275.75;5042007;28;20786;-65
2022/04/24 06:42:52;;;;;;;11.73;9.35;;;;;;;10.31;60.74;100278.56;5046395;28;20037;-66
2022/04/24 06:45:27;;;;;;;17.95;12.88;;;;;;;10.55;60.25;100287.56;5043865;28;20033;-66
2022/04/24 06:47:54;;;;;;;13.77;8.77;;;;;;;10.46;61.07;100285.47;5044694;28;20127;-66
2022/04/24 06:50:22;;;;;;;16.00;13.07;;;;;;;10.54;60.81;100282.31;5042994;28;20090;-66
2022/04/24 06:53:12;;;;;;;13.55;9.52;;;;;;;11.01;59.12;100282.94;5044111;28;20082;-66
2022/04/24 06:55:39;;;;;;;18.20;12.52;;;;;;;10.87;59.06;100287.91;5027840;28;20391;-66
2022/04/24 06:58:07;;;;;;;13.23;9.37;;;;;;;11.33;56.97;100274.97;5044853;28;20060;-66
2022/04/24 07:00:36;;;;;;;17.95;12.98;;;;;;;11.28;57.73;100291.38;5045211;28;20032;-66
2022/04/24 07:03:08;;;;;;;13.15;9.18;;;;;;;11.79;56.83;100281.19;5042404;28;20036;-67
2022/04/24 07:05:34;;;;;;;14.93;9.80;;;;;;;12.56;55.37;100279.47;5041734;28;20021;-66
2022/04/24 07:07:59;;;;;;;14.98;8.65;;;;;;;13.30;51.81;100282.47;5045671;28;20458;-66
2022/04/24 07:10:24;;;;;;;12.80;8.90;;;;;;;13.82;51.20;100276.25;5044517;28;20037;-67
2022/04/24 07:12:54;;;;;;;17.20;15.35;;;;;;;13.52;49.97;100281.53;5044083;28;20436;-67
2022/04/24 07:15:21;;;;;;;16.70;9.90;;;;;;;12.81;52.25;100285.25;5043685;28;20025;-67
2022/04/24 07:17:48;;;;;;;18.17;11.65;;;;;;;12.38;54.09;100286.97;5041516;28;20041;-67
2022/04/24 07:20:15;;;;;;;15.18;10.27;;;;;;;12.34;53.51;100285.00;5044694;28;20247;-67
2022/04/24 07:22:51;;;;;;;19.13;12.77;;;;;;;12.23;54.26;100291.47;5043989;28;20032;-66
2022/04/24 07:25:19;;;;;;;16.73;13.07;;;;;;;12.13;54.45;100289.41;5038544;28;20072;-67
2022/04/24 07:27:45;;;;;;;21.50;13.05;;;;;;;12.44;53.86;100291.47;5028106;28;20040;-67
2022/04/24 07:30:15;;;;;;;19.65;12.45;;;;;;;12.43;54.05;100300.81;5031019;28;20076;-67
2022/04/24 07:32:52;;;;;;;16.23;11.25;;;;;;;12.76;52.39;100299.00;5042283;28;20388;-67
2022/04/24 07:35:21;;;;;;;16.17;12.00;;;;;;;12.82;51.86;100292.44;5037457;28;20033;-67
2022/04/24 07:37:46;;;;;;;16.70;12.73;;;;;;;12.85;51.29;100302.13;5041037;28;20059;-66
2022/04/24 07:40:14;;;;;;;15.43;11.90;;;;;;;12.51;53.70;100296.75;5040824;28;20021;-67
2022/04/24 07:43:02;;;;;;;13.98;9.32;;;;;;;12.89;51.79;100303.28;5040435;28;20021;-66
2022/04/24 07:45:31;;;;;;;16.95;12.15;;;;;;;12.87;51.07;100306.28;5023630;28;20404;-67
2022/04/24 07:47:58;;;;;;;16.25;12.77;;;;;;;12.70;52.65;100311.06;5023111;28;20033;-67
2022/04/24 07:50:26;;;;;;;12.95;9.68;;;;;;;12.82;51.48;100306.22;5023319;28;20032;-66
2022/04/24 07:52:51;;;;;;;15.63;12.68;;;;;;;12.87;51.05;100291.66;5027983;28;20039;-65
2022/04/24 07:55:22;;;;;;;15.18;11.30;;;;;;;12.88;51.55;100302.44;5043103;28;20029;-66
2022/04/24 07:57:48;;;;;;;16.48;10.75;;;;;;;13.04;49.97;100288.81;5043508;28;20052;-66
2022/04/24 08:00:16;;;;;;;16.13;10.65;;;;;;;13.04;51.36;100292.41;5042300;28;20471;-67
2022/04/24 08:02:49;;;;;;;11.98;9.27;;;;;;;13.10;50.72;100291.34;5039981;28;20028;-66
2022/04/24 08:05:25;;;;;;;15.05;10.65;;;;;;;13.21;50.25;100297.78;5042019;28;20045;-66
2022/04/24 08:07:51;;;;;;;15.38;12.40;;;;;;;13.33;49.95;100293.00;5043889;28;20083;-66
2022/04/24 08:10:18;;;;;;;16.42;11.38;;;;;;;13.12;50.67;100302.13;5042960;28;20021;-66
2022/04/24 08:12:43;;;;;;;12.38;9.25;;;;;;;13.34;50.19;100302.94;5041621;28;20028;-66
2022/04/24 08:15:09;;;;;;;13.82;9.40;;;;;;;13.28;50.60;100305.88;5042606;28;20037;-66
2022/04/24 08:17:35;;;;;;;13.02;10.55;;;;;;;13.40;50.36;100310.13;5042192;28;20510;-66
2022/04/24 08:20:01;;;;;;;14.18;11.73;;;;;;;13.60;49.38;100298.44;5041914;28;20056;-66
2022/04/24 08:22:35;;;;;;;15.45;12.50;;;;;;;13.31;50.32;100306.19;5043492;28;20052;-66
2022/04/24 08:25:00;;;;;;;19.70;12.57;;;;;;;13.44;49.53;100304.94;5044249;28;20037;-66
2022/04/24 08:27:25;;;;;;;16.95;13.10;;;;;;;13.41;50.16;100305.44;5043382;28;20103;-66
2022/04/24 08:29:50;;;;;;;15.48;12.43;;;;;;;13.63;49.76;100319.16;5041898;28;20028;-66
2022/04/24 08:32:16;;;;;;;15.82;11.00;;;;;;;13.71;48.53;100304.88;5040724;28;20470;-66
2022/04/24 08:34:41;;;;;;;16.70;12.35;;;;;;;13.66;49.87;100316.69;5041663;28;20037;-66
2022/04/24 08:37:06;;;;;;;12.95;8.98;;;;;;;14.05;49.08;100316.44;5034711;28;20040;-66
2022/04/24 08:39:32;;;;;;;15.65;12.15;;;;;;;14.05;48.56;100315.59;5036814;28;20538;-66
2022/04/24 08:41:57;;;;;;;16.70;12.38;;;;;;;14.00;48.23;100308.09;5043205;28;20029;-66
2022/04/24 08:44:23;;;;;;;13.55;9.25;;;;;;;14.23;47.45;100315.13;5043074;28;20017;-66
2022/04/24 08:46:48;;;;;;;17.30;12.35;;;;;;;14.24;50.24;100308.50;5042043;28;20111;-67
2022/04/24 08:49:14;;;;;;;15.77;12.32;;;;;;;14.73;47.06;100310.97;5041164;28;20025;-66
2022/04/24 08:51:40;;;;;;;16.83;13.50;;;;;;;14.63;47.87;100317.28;5040679;28;20040;-66
2022/04/24 08:54:06;;;;;;;15.55;13.93;;;;;;;15.10;46.02;100305.25;5042347;28;20529;-66
2022/04/24 08:56:31;;;;;;;17.52;13.02;;;;;;;15.18;45.63;100315.78;5039107;28;20127;-67
2022/04/24 08:58:56;;;;;;;15.48;12.80;;;;;;;15.43;45.57;100314.16;5038988;28;20044;-66
2022/04/24 09:01:21;;;;;;;17.13;13.50;;;;;;;16.19;45.85;100316.88;5041397;28;20063;-67
2022/04/24 09:03:47;;;;;;;12.52;8.75;;;;;;;17.34;41.90;100318.56;5039131;28;20029;-67
2022/04/24 09:06:22;;;;;;;15.75;13.10;;;;;;;18.34;39.58;100313.47;5041046;28;20041;-67
2022/04/24 09:08:48;;;;;;;13.63;9.48;;;;;;;19.33;36.60;100316.38;5039830;28;20033;-67
2022/04/24 09:11:13;;;;;;;15.57;11.75;;;;;;;19.59;37.00;100324.31;5041463;28;20029;-67
2022/04/24 09:16:38;;;;;;;15.38;12.00;;;;;;;19.86;37.13;100324.41;5039010;28;20040;-67
2022/04/24 09:19:14;;;;;;;18.15;12.90;;;;;;;19.97;34.98;100325.06;5041160;28;20026;-67
2022/04/24 09:21:39;;;;;;;13.70;10.75;;;;;;;20.46;34.64;100309.63;5037921;28;20033;-65
2022/04/24 09:24:05;;;;;;;13.48;10.95;;;;;;;21.23;33.27;100314.41;5040325;28;20530;-66
2022/04/24 09:26:30;;;;;;;14.23;10.00;;;;;;;22.21;32.19;100322.06;5042268;28;20495;-67
2022/04/24 09:28:55;;;;;;;14.23;10.15;;;;;;;21.34;32.77;100321.47;5040340;28;20021;-67
2022/04/24 09:31:28;;;;;;;13.65;10.93;;;;;;;21.43;32.35;100322.34;5038074;28;20379;-68
2022/04/24 09:33:53;;;;;;;13.30;8.45;;;;;;;21.15;33.05;100316.00;5039944;28;20083;-67
2022/04/24 09:36:24;;;;;;;13.82;10.00;;;;;;;20.78;33.28;100316.25;5041044;28;20472;-67
2022/04/24 09:38:50;;;;;;;14.20;11.23;;;;;;;20.51;33.89;100329.09;5040570;28;20111;-67
2022/04/24 09:41:19;;;;;;;14.32;10.25;;;;;;;19.96;34.10;100329.81;5042483;28;20128;-66
2022/04/24 09:43:45;;;;;;;15.30;11.45;;;;;;;20.32;33.73;100326.38;5042873;28;20119;-66
2022/04/24 09:46:11;;;;;;;15.45;12.20;;;;;;;20.48;33.72;100313.00;5042241;28;20060;-67
2022/04/24 09:48:37;;;;;;;13.95;11.93;;;;;;;20.03;34.81;100323.88;5041124;28;20499;-68
2022/04/24 09:51:03;;;;;;;15.73;11.75;;;;;;;20.93;33.61;100318.72;5040687;28;20484;-66
2022/04/24 09:53:29;;;;;;;11.98;8.65;;;;;;;21.44;32.35;100317.56;5041578;28;20380;-66
2022/04/24 09:55:55;;;;;;;12.75;9.88;;;;;;;21.38;32.80;100313.25;5034876;28;20557;-66
2022/04/24 09:58:23;;;;;;;14.45;11.23;;;;;;;20.89;33.09;100323.31;5022896;28;20157;-66
2022/04/24 10:00:50;;;;;;;;;;;;;;;20.53;33.40;100324.06;5039748;28;20477;-66
2022/04/24 10:03:17;;;;;;;12.60;9.68;;;;;;;21.14;32.58;100316.31;5041118;28;20023;-66
2022/04/24 10:05:45;;;;;;;14.82;11.38;;;;;;;20.85;33.85;100325.88;5042345;28;20028;-66
2022/04/24 10:08:11;;;;;;;14.07;11.27;;;;;;;20.37;33.20;100322.66;5037879;28;20041;-67
2022/04/24 10:10:36;;;;;;;14.10;11.68;;;;;;;20.89;33.13;100323.31;5037964;28;20036;-66
2022/04/24 10:13:06;;;;;;;15.70;11.43;;;;;;;21.99;33.43;100325.69;5041824;28;20601;-66
2022/04/24 10:15:33;;;;;;;12.93;8.90;;;;;;;22.39;30.98;100322.97;5042102;28;20416;-66
2022/04/24 10:18:06;;;;;;;14.98;12.25;;;;;;;21.09;31.55;100327.59;5044381;28;20616;-66
2022/04/24 10:20:43;;;;;;;14.10;11.45;;;;;;;21.54;31.36;100328.50;5043704;28;20089;-66
2022/04/24 10:23:09;;;;;;;12.63;9.13;;;;;;;22.07;30.58;100322.13;5046681;28;20075;-66
2022/04/24 10:25:40;;;;;;;10.77;9.32;;;;;;;21.91;30.93;100334.88;5044278;28;20415;-66
2022/04/24 10:28:16;;;;;;;11.50;8.55;;;;;;;21.11;31.18;100317.75;5041526;28;20032;-66
2022/04/24 10:30:47;;;;;;;12.55;10.52;;;;;;;20.86;32.08;100321.13;5046439;28;20099;-66
2022/04/24 10:33:17;;;;;;;10.95;9.77;;;;;;;21.57;31.25;100321.47;5040748;28;20021;-66
2022/04/24 10:35:52;;;;;;;14.68;10.73;;;;;;;22.30;31.12;100317.31;5034882;28;20025;-66
2022/04/24 10:38:20;;;;;;;11.00;8.30;;;;;;;22.53;30.01;100324.50;5045780;28;20044;-67
2022/04/24 10:41:19;;;;;;;11.02;6.93;;;;;;;21.87;30.42;100320.69;5045954;28;20477;-67
2022/04/24 10:43:48;;;;;;;12.18;8.77;;;;;;;21.40;30.39;100322.16;5033902;28;20043;-65
2022/04/24 10:46:35;;;;;;;12.65;10.43;;;;;;;21.60;31.69;100341.22;5043176;28;20423;-66
2022/04/24 10:49:17;;;;;;;12.88;10.60;;;;;;;22.62;30.02;100324.53;5043745;28;20021;-66
2022/04/24 10:51:44;;;;;;;10.15;7.88;;;;;;;23.46;27.75;100331.78;5043943;28;22189;-66
2022/04/24 10:54:13;;;;;;;13.18;9.95;;;;;;;23.55;28.30;100328.97;5044762;28;20484;-66
2022/04/24 10:56:41;;;;;;;11.75;9.77;;;;;;;23.78;27.86;100333.28;5033961;28;20087;-66
2022/04/24 10:59:09;;;;;;;;;;;;;;;23.67;28.38;100322.72;5025403;28;20132;-66
2022/04/24 11:01:35;;;;;;;11.15;8.70;;;;;;;22.48;28.65;100329.44;5024622;28;19970;-66
2022/04/24 11:04:06;;;;;;;13.43;10.63;;;;;;;21.91;30.35;100321.72;5022966;28;20032;-66
2022/04/24 11:06:31;;;;;;;12.82;8.93;;;;;;;21.42;31.55;100323.47;5039230;28;20240;-67
2022/04/24 11:09:09;;;;;;;21.45;10.77;;;;;;;21.50;31.54;100327.50;5039525;28;20032;-67
2022/04/24 11:11:51;;;;;;;11.32;8.85;;;;;;;20.38;31.47;100322.38;5027277;28;20715;-67
2022/04/24 11:14:21;;;;;;;14.35;10.48;;;;;;;19.55;33.03;100335.22;5043197;28;20055;-66
2022/04/24 11:16:51;;;;;;;13.02;9.88;;;;;;;19.15;34.73;100336.69;5042887;28;20106;-66
2022/04/24 11:19:36;;;;;;;13.82;9.80;;;;;;;19.30;35.72;100338.41;5042450;28;20511;-67